Time;durP1;ratioP1;P1;durP2;ratioP2;P2;SDS_P1;SDS_P2;PMS_P1;PMS_P2;Temp;Humidity;BMP_temperature;BMP_pressure;BME280_temperature;BME280_humidity;BME280_pressure;Samples;Min_cycle;Max_cycle;Signal;HPM_P1;HPM_P2
2023/10/22 00:03:47;;;;;;;48.43;29.70;;;9.30;99.90;;;;;;10246196;29;20304;-82
2023/10/22 00:08:49;;;;;;;42.13;28.23;;;9.30;99.90;;;;;;10230843;28;20225;-82
2023/10/22 00:13:52;;;;;;;43.57;29.10;;;9.50;99.90;;;;;;10252997;29;20301;-82
2023/10/22 00:18:55;;;;;;;32.27;21.50;;;9.60;99.90;;;;;;10236111;28;20265;-82
2023/10/22 00:23:57;;;;;;;37.00;23.97;;;9.70;99.90;;;;;;10235392;29;20261;-82
2023/10/22 00:29:01;;;;;;;46.57;27.73;;;9.80;99.90;;;;;;10253352;29;20233;-82
2023/10/22 00:34:03;;;;;;;45.27;30.20;;;9.90;99.90;;;;;;10235780;29;20262;-82
2023/10/22 00:39:07;;;;;;;40.57;25.33;;;10.00;99.90;;;;;;10223348;29;20262;-82
2023/10/22 00:44:10;;;;;;;43.00;29.67;;;10.00;99.90;;;;;;10196586;29;20792;-82
2023/10/22 00:49:13;;;;;;;41.37;30.27;;;10.20;99.90;;;;;;10213495;29;20230;-82
2023/10/22 00:54:18;;;;;;;42.00;27.60;;;10.20;99.90;;;;;;10195679;29;20326;-82
2023/10/22 00:59:21;;;;;;;36.37;24.00;;;10.20;99.90;;;;;;10195053;29;20294;-82
2023/10/22 01:04:24;;;;;;;43.50;28.33;;;10.20;99.90;;;;;;10195687;29;20713;-82
2023/10/22 01:09:27;;;;;;;39.97;27.37;;;10.30;99.90;;;;;;10195343;29;20230;-81
2023/10/22 01:14:30;;;;;;;43.97;28.67;;;10.40;99.90;;;;;;10212486;29;20620;-81
2023/10/22 01:19:33;;;;;;;41.20;26.37;;;10.30;99.90;;;;;;10210384;29;20615;-81
2023/10/22 01:24:36;;;;;;;46.43;29.40;;;10.20;99.90;;;;;;10195231;29;20325;-81
2023/10/22 01:29:39;;;;;;;42.33;27.97;;;10.30;99.90;;;;;;10181296;29;20946;-81
2023/10/22 01:34:41;;;;;;;35.80;26.33;;;10.30;99.90;;;;;;10192805;29;20680;-81
2023/10/22 01:39:44;;;;;;;42.00;29.17;;;10.30;99.90;;;;;;10210171;29;20666;-81
2023/10/22 01:44:46;;;;;;;45.80;30.47;;;10.20;99.90;;;;;;10211325;29;20649;-81
2023/10/22 01:49:50;;;;;;;42.97;27.63;;;10.20;99.90;;;;;;10209692;29;20290;-81
2023/10/22 01:54:52;;;;;;;42.03;27.40;;;10.30;99.90;;;;;;10210257;29;20274;-81
2023/10/22 01:59:56;;;;;;;40.27;26.93;;;10.30;99.90;;;;;;10230923;29;20678;-81
2023/10/22 02:04:59;;;;;;;37.80;25.23;;;10.40;99.90;;;;;;10249936;29;20261;-81
2023/10/22 02:10:02;;;;;;;43.87;28.17;;;10.40;99.90;;;;;;10232482;29;20292;-81
2023/10/22 02:15:05;;;;;;;44.20;29.40;;;10.50;99.90;;;;;;10232632;29;20296;-81
2023/10/22 02:20:09;;;;;;;34.80;23.27;;;10.60;99.90;;;;;;10231949;29;20634;-82
2023/10/22 02:25:11;;;;;;;43.43;29.30;;;10.60;99.90;;;;;;10231022;29;20305;-81
2023/10/22 02:30:14;;;;;;;34.93;23.70;;;10.60;99.90;;;;;;10247768;28;20953;-82
2023/10/22 02:35:17;;;;;;;41.73;27.20;;;10.70;99.90;;;;;;10250149;29;20237;-82
2023/10/22 02:40:19;;;;;;;33.13;25.20;;;10.80;99.90;;;;;;10249281;28;20329;-81
2023/10/22 02:45:22;;;;;;;47.00;29.40;;;11.00;99.90;;;;;;10231505;29;20881;-82
2023/10/22 02:50:25;;;;;;;29.07;20.17;;;11.10;99.90;;;;;;10230780;29;20236;-82
2023/10/22 02:55:28;;;;;;;37.07;25.50;;;11.20;99.90;;;;;;10247748;29;20233;-82
2023/10/22 03:00:32;;;;;;;51.37;30.70;;;11.40;99.90;;;;;;10247712;29;20277;-82
2023/10/22 03:05:39;;;;;;;35.50;25.43;;;11.50;99.90;;;;;;10229376;29;20266;-82
2023/10/22 03:10:42;;;;;;;37.53;26.33;;;11.60;99.90;;;;;;10229440;29;20246;-81
2023/10/22 03:15:44;;;;;;;43.67;28.67;;;11.70;99.90;;;;;;10228235;29;20238;-82
2023/10/22 03:20:47;;;;;;;33.17;22.87;;;11.60;99.90;;;;;;10229938;29;20257;-82
2023/10/22 03:25:50;;;;;;;22.97;15.53;;;11.80;99.90;;;;;;10228986;29;20293;-82
2023/10/22 03:30:52;;;;;;;32.70;23.27;;;11.80;99.90;;;;;;10229109;29;20641;-82
2023/10/22 03:35:55;;;;;;;34.10;23.80;;;11.80;99.90;;;;;;10245531;29;20698;-83
2023/10/22 03:41:04;;;;;;;42.33;27.33;;;11.90;99.90;;;;;;10264283;28;20768;-82
2023/10/22 03:46:06;;;;;;;41.53;27.30;;;11.80;99.90;;;;;;10246321;28;20233;-82
2023/10/22 03:51:09;;;;;;;42.77;27.47;;;11.80;99.90;;;;;;10255455;28;20233;-82
2023/10/22 03:56:15;;;;;;;37.93;26.60;;;12.00;99.90;;;;;;10246308;28;20297;-82
2023/10/22 04:01:17;;;;;;;43.77;29.27;;;11.70;99.90;;;;;;10245363;29;20267;-82
2023/10/22 04:06:20;;;;;;;38.90;27.63;;;11.80;99.90;;;;;;10245761;29;20262;-82
2023/10/22 04:11:23;;;;;;;40.63;25.80;;;12.00;99.90;;;;;;10245640;28;20234;-82
2023/10/22 04:16:25;;;;;;;35.67;24.33;;;11.70;99.90;;;;;;10245569;29;20250;-82
2023/10/22 04:21:28;;;;;;;35.97;25.67;;;12.10;99.90;;;;;;10244888;28;20269;-82
2023/10/22 04:26:30;;;;;;;35.80;24.07;;;11.90;99.90;;;;;;10228773;29;20242;-83
2023/10/22 04:31:33;;;;;;;33.53;21.60;;;11.80;99.90;;;;;;10221332;29;20697;-82
2023/10/22 04:36:35;;;;;;;28.73;20.10;;;11.80;99.90;;;;;;10229070;29;20677;-83
2023/10/22 04:41:38;;;;;;;35.07;24.43;;;11.80;99.90;;;;;;10246084;28;20265;-82
2023/10/22 04:46:41;;;;;;;32.13;22.70;;;11.70;99.90;;;;;;10244455;29;20238;-82
2023/10/22 04:51:43;;;;;;;29.33;19.70;;;11.90;99.90;;;;;;10244394;29;20289;-82
2023/10/22 04:56:46;;;;;;;27.63;20.77;;;11.80;99.90;;;;;;10250573;28;20304;-82
2023/10/22 05:01:48;;;;;;;27.60;20.20;;;11.80;99.90;;;;;;10235674;29;20707;-82
2023/10/22 05:06:53;;;;;;;29.97;19.53;;;11.80;99.90;;;;;;10252678;29;20649;-82
2023/10/22 05:11:56;;;;;;;27.00;20.47;;;11.80;99.90;;;;;;10252043;29;20324;-82
2023/10/22 05:16:58;;;;;;;31.83;21.90;;;11.90;99.90;;;;;;10234337;29;20237;-82
2023/10/22 05:22:02;;;;;;;38.77;24.67;;;11.80;99.90;;;;;;10234287;29;20671;-82
2023/10/22 05:27:04;;;;;;;39.73;25.30;;;11.90;99.90;;;;;;10233044;29;20242;-82
2023/10/22 05:32:08;;;;;;;37.17;25.63;;;11.80;99.90;;;;;;10250783;29;20245;-82
2023/10/22 05:37:10;;;;;;;37.20;25.23;;;11.80;99.90;;;;;;10251919;29;20672;-83
2023/10/22 05:42:13;;;;;;;39.03;26.27;;;11.80;99.90;;;;;;10233033;29;20672;-83
2023/10/22 05:47:16;;;;;;;36.53;26.13;;;11.70;99.90;;;;;;10243790;29;20281;-82
2023/10/22 05:52:18;;;;;;;35.53;25.83;;;11.70;99.90;;;;;;10197037;29;20258;-82
2023/10/22 05:57:23;;;;;;;37.97;27.57;;;11.70;99.90;;;;;;10210689;29;20301;-82
2023/10/22 06:02:25;;;;;;;31.77;22.47;;;11.80;99.90;;;;;;10245764;29;20250;-82
2023/10/22 06:07:28;;;;;;;33.53;25.43;;;11.80;99.90;;;;;;10249145;28;20230;-82
2023/10/22 06:12:30;;;;;;;39.20;27.47;;;11.70;99.90;;;;;;10249516;29;20269;-82
2023/10/22 06:17:33;;;;;;;42.53;28.57;;;11.70;99.90;;;;;;10249008;28;20245;-82
2023/10/22 06:22:35;;;;;;;29.83;21.83;;;11.70;99.90;;;;;;10193889;29;20262;-82
2023/10/22 06:27:38;;;;;;;42.90;26.63;;;11.70;99.90;;;;;;10210334;29;20659;-82
2023/10/22 06:32:41;;;;;;;28.30;20.30;;;11.90;99.90;;;;;;10194169;29;20207;-82
2023/10/22 06:37:43;;;;;;;38.40;27.50;;;11.80;99.90;;;;;;10248037;29;20241;-82
2023/10/22 06:42:46;;;;;;;25.03;17.43;;;11.90;99.90;;;;;;10247024;29;20316;-82
2023/10/22 06:47:50;;;;;;;35.97;24.97;;;11.80;99.90;;;;;;10248000;29;20233;-82
2023/10/22 06:52:53;;;;;;;28.30;21.27;;;11.70;99.90;;;;;;10245914;29;20230;-83
2023/10/22 06:57:56;;;;;;;31.63;23.37;;;11.80;99.90;;;;;;10245374;28;20924;-82
2023/10/22 07:02:58;;;;;;;30.57;21.87;;;12.00;99.90;;;;;;10241783;29;20249;-82
2023/10/22 07:08:01;;;;;;;23.67;17.67;;;12.00;99.90;;;;;;10247379;28;20230;-81
2023/10/22 07:13:04;;;;;;;26.63;18.97;;;12.00;99.90;;;;;;10247524;29;20249;-81
2023/10/22 07:18:07;;;;;;;31.43;21.20;;;12.00;99.90;;;;;;10247177;28;20289;-81
2023/10/22 07:23:10;;;;;;;26.63;20.27;;;12.00;99.90;;;;;;10246975;29;20253;-81
2023/10/22 07:28:15;;;;;;;38.03;27.23;;;12.00;99.90;;;;;;10244748;29;20234;-82
2023/10/22 07:33:18;;;;;;;26.20;20.10;;;12.00;99.90;;;;;;10227626;29;20304;-81
2023/10/22 07:38:22;;;;;;;20.50;16.83;;;12.00;99.90;;;;;;10229815;28;20258;-81
2023/10/22 07:43:27;;;;;;;26.40;17.70;;;12.00;99.90;;;;;;10241187;28;20381;-81
2023/10/22 07:48:29;;;;;;;25.30;18.73;;;12.10;99.90;;;;;;10242674;29;20234;-81
2023/10/22 07:53:32;;;;;;;32.60;22.20;;;12.20;99.90;;;;;;10242819;28;21077;-81
2023/10/22 07:58:36;;;;;;;22.87;16.37;;;12.20;99.90;;;;;;10229274;29;20292;-81
2023/10/22 08:03:38;;;;;;;35.63;23.43;;;12.40;99.90;;;;;;10263060;28;20246;-81
2023/10/22 08:08:41;;;;;;;27.80;22.00;;;12.60;99.90;;;;;;10242127;28;20320;-80
2023/10/22 08:13:44;;;;;;;26.17;17.57;;;12.70;99.90;;;;;;10227668;29;20278;-82
2023/10/22 08:18:46;;;;;;;33.83;22.40;;;12.60;99.90;;;;;;10243730;29;20289;-82
2023/10/22 08:23:49;;;;;;;19.40;15.43;;;12.60;99.90;;;;;;10243385;28;20289;-83
2023/10/22 08:28:51;;;;;;;33.23;20.53;;;12.70;99.90;;;;;;10229745;28;20225;-82
2023/10/22 08:33:54;;;;;;;33.13;22.20;;;12.80;99.90;;;;;;10251531;29;20238;-82
2023/10/22 08:38:56;;;;;;;36.77;24.33;;;13.00;99.90;;;;;;10231076;28;20269;-83
2023/10/22 08:44:02;;;;;;;33.17;21.73;;;12.90;99.90;;;;;;10219351;29;20266;-83
2023/10/22 08:49:06;;;;;;;32.70;23.57;;;13.00;99.90;;;;;;10235448;29;20238;-83
2023/10/22 08:54:10;;;;;;;26.77;18.07;;;13.10;99.90;;;;;;10249662;29;20316;-83
2023/10/22 08:59:13;;;;;;;26.37;20.07;;;13.10;99.90;;;;;;10229069;28;20907;-83
2023/10/22 09:04:21;;;;;;;25.50;17.94;;;13.40;99.90;;;;;;10088190;28;10000823;-82
2023/10/22 09:09:33;;;;;;;21.87;16.33;;;13.40;99.90;;;;;;10246034;29;20509;-82
2023/10/22 09:14:35;;;;;;;26.00;19.03;;;13.40;99.90;;;;;;10224781;29;20309;-82
2023/10/22 09:19:47;;;;;;;20.43;16.13;;;13.50;99.90;;;;;;10232070;29;20761;-81
2023/10/22 09:24:53;;;;;;;23.57;16.63;;;13.60;99.90;;;;;;10225784;28;20771;-82
2023/10/22 09:29:58;;;;;;;20.17;15.33;;;13.60;99.90;;;;;;10246323;29;20245;-82
2023/10/22 09:35:14;;;;;;;23.77;17.50;;;13.70;99.90;;;;;;10222374;29;20964;-82
2023/10/22 09:40:21;;;;;;;27.27;17.90;;;13.60;99.90;;;;;;10244882;28;20716;-82
2023/10/22 09:45:24;;;;;;;24.33;17.57;;;13.50;99.90;;;;;;10246575;28;20308;-82
2023/10/22 09:50:30;;;;;;;27.57;21.27;;;13.60;99.90;;;;;;10249033;29;20285;-82
2023/10/22 09:55:35;;;;;;;31.20;21.50;;;13.70;99.90;;;;;;10209921;29;20238;-81
2023/10/22 10:00:45;;;;;;;31.77;21.87;;;13.20;99.90;;;;;;10212790;28;20674;-82
2023/10/22 10:05:54;;;;;;;21.13;16.37;;;13.10;99.90;;;;;;10246826;28;20313;-80
2023/10/22 10:10:57;;;;;;;25.97;18.07;;;13.20;99.90;;;;;;10246295;28;20716;-85
2023/10/22 10:16:02;;;;;;;25.97;16.80;;;13.20;99.90;;;;;;10249589;29;20707;-85
2023/10/22 10:21:33;;;;;;;21.27;16.77;;;13.30;99.90;;;;;;10232688;29;20729;-85
2023/10/22 10:26:36;;;;;;;21.67;14.23;;;13.30;99.90;;;;;;10249224;28;20348;-85
2023/10/22 10:31:39;;;;;;;21.67;15.83;;;13.30;99.90;;;;;;10249060;29;20225;-85
2023/10/22 10:36:42;;;;;;;22.13;16.03;;;13.60;99.90;;;;;;10248954;29;20237;-86
2023/10/22 10:41:52;;;;;;;20.60;14.90;;;13.20;99.90;;;;;;10248438;29;20661;-86
2023/10/22 10:46:55;;;;;;;19.77;15.30;;;13.20;99.90;;;;;;10248275;29;20254;-85
2023/10/22 10:51:59;;;;;;;22.17;17.50;;;13.30;99.90;;;;;;10247762;28;20270;-86
2023/10/22 10:57:02;;;;;;;21.77;14.83;;;13.30;99.90;;;;;;10247240;29;20269;-86
2023/10/22 11:02:10;;;;;;;24.77;17.40;;;13.30;99.90;;;;;;10247966;28;20229;-86
2023/10/22 11:07:14;;;;;;;25.97;17.60;;;13.20;99.90;;;;;;10230621;29;20269;-85
2023/10/22 11:12:20;;;;;;;25.53;17.97;;;13.30;99.90;;;;;;10247221;29;20325;-85
2023/10/22 11:17:23;;;;;;;15.70;12.03;;;13.30;99.90;;;;;;10247249;29;20242;-86
2023/10/22 11:22:27;;;;;;;20.47;16.07;;;13.30;99.90;;;;;;10246755;29;20238;-86
2023/10/22 11:27:31;;;;;;;17.53;13.70;;;13.30;99.90;;;;;;10247227;28;20317;-86
2023/10/22 11:32:38;;;;;;;22.33;15.83;;;13.20;99.90;;;;;;10229370;29;20237;-86
2023/10/22 11:37:41;;;;;;;24.23;17.97;;;13.30;99.90;;;;;;10229560;29;20238;-85
2023/10/22 11:42:44;;;;;;;23.33;16.40;;;13.30;99.90;;;;;;10247158;28;20317;-85
2023/10/22 11:47:46;;;;;;;26.87;17.77;;;13.40;99.90;;;;;;10246856;28;20673;-86
2023/10/22 11:52:51;;;;;;;18.87;14.07;;;13.40;99.90;;;;;;10246584;29;20736;-86
2023/10/22 11:57:54;;;;;;;22.03;16.43;;;13.30;99.90;;;;;;10246469;29;20241;-85
2023/10/22 12:02:57;;;;;;;18.10;13.53;;;13.20;99.90;;;;;;10245983;28;20775;-87
2023/10/22 12:07:59;;;;;;;29.33;20.70;;;13.30;99.90;;;;;;10245689;29;20223;-85
2023/10/22 12:13:04;;;;;;;29.80;20.43;;;13.10;99.90;;;;;;10245818;28;20241;-85
2023/10/22 12:18:09;;;;;;;24.00;18.07;;;12.90;99.90;;;;;;10245280;28;20234;-85
2023/10/22 12:23:12;;;;;;;19.93;14.93;;;12.90;99.90;;;;;;10237204;28;20367;-85
2023/10/22 12:28:14;;;;;;;26.37;18.03;;;13.00;99.90;;;;;;10254918;28;20226;-86
2023/10/22 12:33:17;;;;;;;24.63;17.80;;;13.20;99.90;;;;;;10235588;28;20631;-85
2023/10/22 12:38:20;;;;;;;21.70;16.20;;;13.40;99.90;;;;;;10235028;28;20328;-85
2023/10/22 12:43:23;;;;;;;31.30;23.13;;;13.20;99.90;;;;;;10244674;28;20250;-85
2023/10/22 12:48:25;;;;;;;29.30;22.13;;;13.40;99.90;;;;;;10245222;29;20757;-85
2023/10/22 12:53:28;;;;;;;27.43;22.37;;;13.40;99.90;;;;;;10226874;28;20705;-86
2023/10/22 12:58:31;;;;;;;33.13;23.07;;;13.30;99.90;;;;;;10227238;29;20241;-86
2023/10/22 13:03:34;;;;;;;26.03;19.60;;;13.60;99.90;;;;;;10244738;29;20677;-85
2023/10/22 13:08:38;;;;;;;27.00;18.73;;;13.80;99.90;;;;;;10242178;29;20234;-85
2023/10/22 13:13:40;;;;;;;26.13;18.70;;;13.50;99.90;;;;;;10245659;29;20242;-85
2023/10/22 13:18:43;;;;;;;26.93;19.97;;;14.20;99.90;;;;;;10234336;29;20206;-85
2023/10/22 13:23:45;;;;;;;28.27;21.27;;;14.10;99.90;;;;;;10234637;29;20254;-85
2023/10/22 13:28:48;;;;;;;44.23;24.20;;;14.00;99.90;;;;;;10250803;29;20315;-85
2023/10/22 13:33:50;;;;;;;37.43;22.07;;;14.10;99.90;;;;;;10251542;29;20296;-85
2023/10/22 13:38:53;;;;;;;30.40;22.47;;;13.80;99.90;;;;;;10233837;28;20277;-85
2023/10/22 13:43:56;;;;;;;25.37;18.90;;;14.10;99.90;;;;;;10251143;29;20332;-86
2023/10/22 13:48:58;;;;;;;22.23;17.03;;;13.80;99.90;;;;;;10234360;29;20697;-84
2023/10/22 13:54:01;;;;;;;20.63;15.70;;;13.80;99.90;;;;;;10250416;28;20697;-85
2023/10/22 13:59:08;;;;;;;20.90;15.63;;;13.70;99.90;;;;;;10250078;28;20305;-85
2023/10/22 14:04:11;;;;;;;18.27;14.67;;;14.20;99.90;;;;;;10233932;29;20743;-87
2023/10/22 14:09:14;;;;;;;17.80;13.03;;;14.30;99.90;;;;;;10243081;28;20235;-87
2023/10/22 14:14:16;;;;;;;15.90;12.00;;;14.60;99.90;;;;;;10250565;29;20288;-88
2023/10/22 14:19:20;;;;;;;15.50;11.80;;;14.80;99.90;;;;;;10249898;29;21038;-87
2023/10/22 14:24:24;;;;;;;15.57;11.77;;;14.50;99.90;;;;;;10233096;28;20828;-85
2023/10/22 14:29:27;;;;;;;17.33;12.10;;;14.60;99.90;;;;;;10231225;29;20288;-85
2023/10/22 14:34:30;;;;;;;14.37;11.43;;;14.50;99.90;;;;;;10231767;29;20265;-86
2023/10/22 14:39:32;;;;;;;16.03;12.40;;;14.70;99.90;;;;;;10231933;29;20258;-86
2023/10/22 14:44:35;;;;;;;16.40;13.13;;;14.50;99.90;;;;;;10248281;29;20630;-87
2023/10/22 14:49:38;;;;;;;15.23;11.97;;;14.50;99.90;;;;;;10248278;29;20254;-87
2023/10/22 14:54:41;;;;;;;15.87;13.40;;;14.40;99.90;;;;;;10230727;28;20704;-87
2023/10/22 14:59:43;;;;;;;13.80;11.27;;;14.30;99.90;;;;;;10247589;28;20244;-87
2023/10/22 15:04:46;;;;;;;14.90;12.07;;;14.30;99.90;;;;;;10260224;28;20254;-87
2023/10/22 15:09:51;;;;;;;11.73;10.37;;;14.20;99.90;;;;;;10239459;28;20195;-87
2023/10/22 15:14:54;;;;;;;11.20;9.13;;;14.50;99.90;;;;;;10254572;28;20286;-86
2023/10/22 15:19:57;;;;;;;13.53;9.97;;;14.20;99.90;;;;;;10248084;28;20999;-86
2023/10/22 15:25:00;;;;;;;10.70;9.07;;;14.00;99.90;;;;;;10236928;28;20764;-86
2023/10/22 15:30:03;;;;;;;12.10;9.53;;;14.20;99.90;;;;;;10235758;28;20230;-86
2023/10/22 15:35:05;;;;;;;18.10;14.17;;;14.20;99.90;;;;;;10245876;28;20234;-86
2023/10/22 15:40:08;;;;;;;17.87;14.27;;;13.90;99.90;;;;;;10226208;28;20322;-86
2023/10/22 15:45:11;;;;;;;15.53;12.33;;;14.40;99.90;;;;;;10229265;29;20347;-86
2023/10/22 15:50:15;;;;;;;17.37;12.43;;;14.10;99.90;;;;;;10229221;29;20685;-86
2023/10/22 15:55:18;;;;;;;15.63;11.90;;;13.90;99.90;;;;;;10246947;29;20785;-86
2023/10/22 16:00:23;;;;;;;15.53;11.63;;;13.70;99.90;;;;;;10244323;29;20282;-86
2023/10/22 16:05:26;;;;;;;19.33;13.53;;;13.50;99.90;;;;;;10227935;29;20316;-86
2023/10/22 16:10:28;;;;;;;15.37;10.80;;;13.30;99.90;;;;;;10244424;29;20843;-84
2023/10/22 16:15:31;;;;;;;19.50;13.67;;;12.60;99.90;;;;;;10228796;29;20226;-84
2023/10/22 16:20:34;;;;;;;18.00;11.50;;;12.90;99.90;;;;;;10244768;28;20293;-83
2023/10/22 16:25:43;;;;;;;26.90;18.67;;;12.20;99.90;;;;;;10245216;29;20257;-83
2023/10/22 16:30:51;;;;;;;27.47;19.40;;;11.80;99.90;;;;;;10227859;28;20299;-83
2023/10/22 16:35:54;;;;;;;26.47;19.23;;;11.60;99.90;;;;;;10209973;28;20233;-84
2023/10/22 16:40:57;;;;;;;19.53;14.83;;;11.60;99.90;;;;;;10246350;28;20293;-83
2023/10/22 16:46:00;;;;;;;20.83;15.87;;;11.40;99.90;;;;;;10246989;28;20696;-84
2023/10/22 16:51:04;;;;;;;16.77;13.00;;;11.40;99.90;;;;;;10246969;28;20234;-83
2023/10/22 16:56:07;;;;;;;15.87;13.70;;;11.30;99.90;;;;;;10214212;29;20243;-83
2023/10/22 17:01:09;;;;;;;16.17;13.33;;;11.20;99.90;;;;;;10213296;29;20239;-81
2023/10/22 17:06:15;;;;;;;23.33;15.73;;;11.30;99.90;;;;;;10213112;29;20301;-83
2023/10/22 17:11:18;;;;;;;20.10;14.57;;;11.20;99.90;;;;;;10220947;29;20199;-83
2023/10/22 17:16:20;;;;;;;22.33;17.83;;;11.30;99.90;;;;;;10254564;28;20334;-82
2023/10/22 17:21:23;;;;;;;30.80;17.43;;;11.10;99.90;;;;;;10260136;28;20297;-83
2023/10/22 17:26:26;;;;;;;21.93;16.67;;;11.20;99.90;;;;;;10256898;28;20309;-82
2023/10/22 17:31:29;;;;;;;23.53;17.73;;;11.20;99.90;;;;;;10262591;28;20286;-82
2023/10/22 17:36:32;;;;;;;14.87;10.17;;;11.20;99.90;;;;;;10245069;28;20695;-81
2023/10/22 17:41:35;;;;;;;24.83;20.20;;;11.30;99.90;;;;;;10249211;28;20934;-82
2023/10/22 17:46:37;;;;;;;25.33;16.67;;;11.30;99.90;;;;;;10252018;29;20288;-83
2023/10/22 17:51:40;;;;;;;20.80;15.70;;;11.10;99.90;;;;;;10235290;29;20210;-81
2023/10/22 17:56:43;;;;;;;24.80;16.43;;;11.10;99.90;;;;;;10264286;28;20701;-82
2023/10/22 18:01:45;;;;;;;19.80;17.00;;;10.90;99.90;;;;;;10267955;28;20295;-84
2023/10/22 18:06:48;;;;;;;36.97;24.27;;;10.90;99.90;;;;;;10249547;29;20862;-84
2023/10/22 18:11:51;;;;;;;44.60;26.80;;;10.70;99.90;;;;;;10249939;28;20308;-84
2023/10/22 18:16:55;;;;;;;47.93;26.70;;;10.60;99.90;;;;;;10249927;29;20753;-84
2023/10/22 18:21:59;;;;;;;43.37;26.93;;;10.50;99.90;;;;;;10249822;29;20300;-85
2023/10/22 18:27:02;;;;;;;43.83;26.10;;;10.40;99.90;;;;;;10247928;29;20253;-84
2023/10/22 18:32:06;;;;;;;12.97;9.53;;;10.30;99.90;;;;;;10231788;29;20228;-83
2023/10/22 18:37:11;;;;;;;22.23;15.48;;;10.30;99.90;;;;;;9597665;28;10001821;-84
2023/10/22 18:42:13;;;;;;;26.10;17.33;;;10.60;99.90;;;;;;10266957;28;20615;-84
2023/10/22 18:47:16;;;;;;;28.07;17.43;;;10.60;99.90;;;;;;10285934;28;20336;-84
2023/10/22 18:52:19;;;;;;;40.27;26.60;;;10.90;99.90;;;;;;10285927;28;20757;-84
2023/10/22 18:57:22;;;;;;;28.40;19.73;;;11.00;99.90;;;;;;10283518;28;20240;-84
2023/10/22 19:02:25;;;;;;;19.80;13.53;;;11.00;99.90;;;;;;10280228;28;20300;-84
2023/10/22 19:07:28;;;;;;;35.87;24.13;;;11.10;99.90;;;;;;10280386;28;20348;-84
2023/10/22 19:12:30;;;;;;;44.87;26.50;;;11.20;99.90;;;;;;10280700;28;20348;-84
2023/10/22 19:17:33;;;;;;;33.27;23.00;;;11.30;99.90;;;;;;10257279;28;20237;-85
2023/10/22 19:22:36;;;;;;;31.50;22.00;;;11.20;99.90;;;;;;10282704;28;20245;-84
2023/10/22 19:27:39;;;;;;;25.77;17.97;;;11.40;99.90;;;;;;10281012;28;20265;-85
2023/10/22 19:32:42;;;;;;;20.10;15.60;;;11.50;99.90;;;;;;10244586;28;20774;-84
2023/10/22 19:37:45;;;;;;;23.27;15.13;;;11.70;99.90;;;;;;10280240;28;20803;-84
2023/10/22 19:42:47;;;;;;;40.87;26.17;;;11.90;99.90;;;;;;10278860;28;20353;-85
2023/10/22 19:47:50;;;;;;;33.27;21.67;;;11.90;99.90;;;;;;10280567;28;20320;-84
2023/10/22 19:52:53;;;;;;;52.17;31.47;;;11.90;99.90;;;;;;10280017;28;20240;-85
2023/10/22 19:57:55;;;;;;;37.80;21.70;;;11.90;99.90;;;;;;10279943;28;20295;-85
2023/10/22 20:02:58;;;;;;;39.70;22.00;;;11.90;99.90;;;;;;10263516;28;20289;-85
2023/10/22 20:08:01;;;;;;;41.80;25.73;;;11.90;99.90;;;;;;10279729;28;20720;-85
2023/10/22 20:13:04;;;;;;;38.77;24.93;;;11.70;99.90;;;;;;10240363;29;20290;-85
2023/10/22 20:18:08;;;;;;;39.03;26.23;;;11.50;99.90;;;;;;10241314;28;20297;-85
2023/10/22 20:23:10;;;;;;;31.67;21.90;;;11.70;99.90;;;;;;10240728;29;20316;-85
2023/10/22 20:28:13;;;;;;;29.63;21.03;;;11.70;99.90;;;;;;10284730;28;20720;-85
2023/10/22 20:33:16;;;;;;;18.40;12.80;;;12.00;99.90;;;;;;10291850;28;20237;-85
2023/10/22 20:38:18;;;;;;;39.67;27.30;;;11.90;99.90;;;;;;10290749;28;20300;-86
2023/10/22 20:43:21;;;;;;;20.23;14.03;;;11.80;99.90;;;;;;10274425;28;20252;-86
2023/10/22 20:48:23;;;;;;;24.30;14.73;;;11.40;99.90;;;;;;10288912;28;20288;-85
2023/10/22 20:53:26;;;;;;;20.03;14.03;;;11.80;99.90;;;;;;10272728;28;20291;-86
2023/10/22 20:58:32;;;;;;;24.90;16.10;;;12.20;99.90;;;;;;10288712;28;20292;-86
2023/10/22 21:03:35;;;;;;;21.40;13.43;;;12.60;99.90;;;;;;10288370;28;20241;-86
2023/10/22 21:08:38;;;;;;;16.00;11.17;;;12.90;99.90;;;;;;10291539;28;20332;-86
2023/10/22 21:13:41;;;;;;;18.17;11.53;;;13.00;99.90;;;;;;10290218;28;20242;-86
2023/10/22 21:18:43;;;;;;;17.83;13.13;;;13.10;99.90;;;;;;10289174;28;20237;-86
2023/10/22 21:23:46;;;;;;;21.00;13.20;;;13.20;99.90;;;;;;10290411;28;20269;-86
2023/10/22 21:28:49;;;;;;;17.67;12.40;;;13.20;99.90;;;;;;10290323;28;20672;-86
2023/10/22 21:33:52;;;;;;;18.97;13.57;;;13.10;99.90;;;;;;10273206;28;20238;-86
2023/10/22 21:38:54;;;;;;;16.60;12.87;;;12.90;99.90;;;;;;10276308;28;20332;-86
2023/10/22 21:43:57;;;;;;;25.20;14.20;;;12.80;99.90;;;;;;10287630;28;20693;-86
2023/10/22 21:48:59;;;;;;;24.10;14.97;;;12.60;99.90;;;;;;10281562;28;20812;-86
2023/10/22 21:54:02;;;;;;;24.70;15.23;;;12.70;99.90;;;;;;10258055;28;20300;-85
2023/10/22 21:59:05;;;;;;;17.30;13.27;;;12.50;99.90;;;;;;10273568;28;20260;-86
2023/10/22 22:04:08;;;;;;;21.20;13.00;;;12.40;99.90;;;;;;10285922;28;20237;-86
2023/10/22 22:09:11;;;;;;;18.83;13.83;;;12.30;99.90;;;;;;10286204;28;20296;-86
2023/10/22 22:14:14;;;;;;;27.33;17.10;;;12.40;99.90;;;;;;10268606;28;20478;-86
2023/10/22 22:19:17;;;;;;;23.03;12.87;;;12.40;99.90;;;;;;10286724;28;20237;-86
2023/10/22 22:24:21;;;;;;;17.50;12.90;;;12.40;99.90;;;;;;10286845;28;20295;-86
2023/10/22 22:29:23;;;;;;;21.20;14.03;;;12.50;99.90;;;;;;10285741;28;20324;-87
2023/10/22 22:34:26;;;;;;;30.37;18.40;;;12.40;99.90;;;;;;10291086;28;20655;-87
2023/10/22 22:39:29;;;;;;;21.60;15.30;;;12.10;99.90;;;;;;10290906;28;20260;-86
2023/10/22 22:44:31;;;;;;;13.67;11.27;;;11.60;99.90;;;;;;10315698;28;20301;-86
2023/10/22 22:49:34;;;;;;;23.60;15.13;;;11.80;99.90;;;;;;10285902;28;20720;-86
2023/10/22 22:54:37;;;;;;;18.63;11.67;;;12.00;99.90;;;;;;10286547;28;20237;-87
2023/10/22 22:59:40;;;;;;;21.23;14.20;;;12.00;99.90;;;;;;10268645;28;21014;-86
2023/10/22 23:04:43;;;;;;;20.97;12.53;;;12.10;99.90;;;;;;10286505;28;20261;-87
2023/10/22 23:09:45;;;;;;;18.47;13.47;;;12.10;99.90;;;;;;10286743;28;20253;-87
2023/10/22 23:14:48;;;;;;;17.40;12.17;;;11.90;99.90;;;;;;10286929;28;20286;-85
2023/10/22 23:19:51;;;;;;;21.70;14.30;;;11.90;99.90;;;;;;10287276;28;20242;-86
2023/10/22 23:24:53;;;;;;;16.83;11.83;;;11.90;99.90;;;;;;10269812;28;20279;-86
2023/10/22 23:29:56;;;;;;;17.23;12.00;;;12.10;99.90;;;;;;10286046;28;20713;-86
2023/10/22 23:34:59;;;;;;;16.77;11.77;;;12.10;99.90;;;;;;10286808;28;20283;-86
2023/10/22 23:40:02;;;;;;;19.10;11.67;;;12.40;99.90;;;;;;10286863;28;20327;-86
2023/10/22 23:45:05;;;;;;;14.00;9.83;;;12.50;99.90;;;;;;10286508;28;20293;-86
2023/10/22 23:50:07;;;;;;;15.00;8.67;;;12.70;99.90;;;;;;10286568;28;20313;-86
2023/10/22 23:55:10;;;;;;;13.80;8.67;;;12.70;99.90;;;;;;10286280;28;20240;-86
